createdAt,value
2023-01-28T00:00:01.708Z,94.15
2023-01-28T00:05:01.838Z,94.42
2023-01-28T00:10:01.949Z,94.38
2023-01-28T00:15:01.557Z,94.08
2023-01-28T00:20:01.488Z,94.3
2023-01-28T00:25:01.546Z,93.91
2023-01-28T00:30:01.622Z,93.61
2023-01-28T00:35:01.549Z,93.75
2023-01-28T00:40:01.576Z,93.79
2023-01-28T00:45:01.335Z,94.03
2023-01-28T00:50:01.457Z,94.3
2023-01-28T00:55:01.566Z,93.83
2023-01-28T01:00:01.668Z,94.03
2023-01-28T01:05:01.449Z,94.27
2023-01-28T01:10:01.832Z,94.75
2023-01-28T01:15:01.861Z,94.77
2023-01-28T01:20:01.480Z,95.33
2023-01-28T01:25:01.626Z,95.5
2023-01-28T01:30:02.018Z,95.36
2023-01-28T01:35:02.034Z,95.2
2023-01-28T01:40:01.774Z,94.7
2023-01-28T01:45:01.819Z,94.72
2023-01-28T01:50:01.687Z,94.96
2023-01-28T01:55:01.674Z,94.72
2023-01-28T02:00:02.173Z,94.61
2023-01-28T02:05:01.510Z,94.77
2023-01-28T02:10:01.839Z,94.88
2023-01-28T02:15:02.122Z,94.73
2023-01-28T02:20:02.006Z,95.21
2023-01-28T02:25:01.711Z,94.7
2023-01-28T02:30:02.261Z,95.1
2023-01-28T02:35:02.264Z,95.09
2023-01-28T02:40:02.304Z,95.05
2023-01-28T02:45:01.429Z,95.36
2023-01-28T02:50:01.983Z,95.54
2023-01-28T02:55:01.448Z,95.5
2023-01-28T03:00:01.649Z,95.51
2023-01-28T03:05:01.696Z,95.71
2023-01-28T03:10:01.944Z,95.59
2023-01-28T03:15:01.728Z,95.44
2023-01-28T03:20:01.727Z,95.12
2023-01-28T03:25:01.426Z,95.24
2023-01-28T03:30:01.299Z,95.18
2023-01-28T03:35:02.203Z,95.35
2023-01-28T03:40:02.245Z,95.4
2023-01-28T03:45:02.101Z,95.04
2023-01-28T03:50:02.123Z,94.95
2023-01-28T03:55:01.591Z,94.86
2023-01-28T04:00:02.283Z,94.94
2023-01-28T04:05:02.002Z,94.61
2023-01-28T04:10:01.383Z,95.04
2023-01-28T04:15:01.852Z,95.19
2023-01-28T04:20:02.034Z,95.37
2023-01-28T04:25:01.986Z,95.78
2023-01-28T04:30:02.144Z,95.87
2023-01-28T04:35:02.243Z,95.96
2023-01-28T04:40:01.661Z,96.13
2023-01-28T04:45:02.132Z,96.35
2023-01-28T04:50:01.996Z,96.46
2023-01-28T04:55:02.183Z,96.02
2023-01-28T05:00:01.912Z,96.12
2023-01-28T05:05:02.111Z,96.31
2023-01-28T05:10:01.332Z,96.34
2023-01-28T05:15:01.674Z,96.28
2023-01-28T05:20:01.572Z,95.73
2023-01-28T05:25:01.898Z,95.64
2023-01-28T05:30:01.942Z,95.27
2023-01-28T05:35:01.582Z,94.99
2023-01-28T05:40:01.525Z,94.61
2023-01-28T05:45:01.952Z,94.64
2023-01-28T05:50:02.077Z,94.65
2023-01-28T05:55:01.901Z,94.6
2023-01-28T06:00:01.974Z,94.62
2023-01-28T06:05:01.461Z,94.35
2023-01-28T06:10:01.883Z,93.74
2023-01-28T06:15:02.328Z,93.83
2023-01-28T06:20:01.529Z,94.04
2023-01-28T06:25:01.995Z,93.82
2023-01-28T06:30:01.416Z,93.83
2023-01-28T06:35:01.821Z,93.58
2023-01-28T06:40:01.916Z,93.51
2023-01-28T06:45:02.278Z,93.49
2023-01-28T06:50:01.347Z,93.31
2023-01-28T06:55:01.752Z,93.43
2023-01-28T07:00:01.945Z,93.11
2023-01-28T07:05:01.365Z,92.71
2023-01-28T07:10:01.968Z,92.87
2023-01-28T07:15:02.198Z,93
2023-01-28T07:20:01.309Z,92.71
2023-01-28T07:25:01.497Z,92.48
2023-01-28T07:30:01.729Z,91.97
2023-01-28T07:35:02.252Z,92.26
2023-01-28T07:40:01.342Z,92.2
2023-01-28T07:45:01.774Z,92.49
2023-01-28T07:50:01.998Z,92.2
2023-01-28T07:55:02.158Z,92.2
2023-01-28T08:00:01.409Z,92.61
2023-01-28T08:05:02.267Z,92.43
2023-01-28T08:10:01.620Z,92.21
2023-01-28T08:15:01.957Z,91.99
2023-01-28T08:20:02.028Z,92.07
2023-01-28T08:25:01.351Z,92.32
2023-01-28T08:30:02.077Z,92
2023-01-28T08:35:01.366Z,92.02
2023-01-28T08:40:01.846Z,91.79
2023-01-28T08:45:01.373Z,91.81
2023-01-28T08:50:01.964Z,91.93
2023-01-28T08:55:02.111Z,91.43
2023-01-28T09:00:01.527Z,90.94
2023-01-28T09:05:02.174Z,90.87
2023-01-28T09:10:01.579Z,91.54
2023-01-28T09:15:01.808Z,90.91
2023-01-28T09:20:01.817Z,90.31
2023-01-28T09:25:01.313Z,90.15
2023-01-28T09:30:01.810Z,90.22
2023-01-28T09:35:02.098Z,90.04
2023-01-28T09:40:02.300Z,89.74
2023-01-28T09:45:01.861Z,89.42
2023-01-28T09:50:01.301Z,89.17
2023-01-28T09:55:01.683Z,89.01
2023-01-28T10:00:02.034Z,88.53
2023-01-28T10:05:02.271Z,88.13
2023-01-28T10:10:02.222Z,88.07
2023-01-28T10:15:02.308Z,87.75
2023-01-28T10:20:01.947Z,87.82
2023-01-28T10:25:01.331Z,87.33
2023-01-28T10:30:01.843Z,87.69
2023-01-28T10:35:02.153Z,87.83
2023-01-28T10:40:01.336Z,88.44
2023-01-28T10:45:02.066Z,87.72
2023-01-28T10:50:01.582Z,87.96
2023-01-28T10:55:01.761Z,87.1
2023-01-28T11:00:01.927Z,87.85
2023-01-28T11:05:02.091Z,87.38
2023-01-28T11:10:01.658Z,87.87
2023-01-28T11:15:02.062Z,87.49
2023-01-28T11:20:01.465Z,87.72
2023-01-28T11:25:01.928Z,87.22
2023-01-28T11:30:02.171Z,86.79
2023-01-28T11:35:01.847Z,86.86
2023-01-28T11:40:02.007Z,86.79
2023-01-28T11:45:02.273Z,86.74
2023-01-28T11:50:01.630Z,86.46
2023-01-28T11:55:02.217Z,86.4
2023-01-28T12:00:01.576Z,86.28
2023-01-28T12:05:02.085Z,85.86
2023-01-28T12:10:01.540Z,86.54
2023-01-28T12:15:01.910Z,85.05
2023-01-28T12:20:01.752Z,85.46
2023-01-28T12:25:02.233Z,85.37
2023-01-28T12:30:01.611Z,84.4
2023-01-28T12:35:01.976Z,83.52
2023-01-28T12:40:02.100Z,83.04
2023-01-28T12:45:02.239Z,83.21
2023-01-28T12:50:01.633Z,83.23
2023-01-28T12:55:01.406Z,82.36
2023-01-28T13:00:01.643Z,82.83
2023-01-28T13:05:02.185Z,81.81
2023-01-28T13:10:02.252Z,83.12
2023-01-28T13:15:01.322Z,83.12
2023-01-28T13:20:02.133Z,81.47
2023-01-28T13:25:01.649Z,81.74
2023-01-28T13:30:01.983Z,81.2
2023-01-28T13:35:01.580Z,80.64
2023-01-28T13:40:02.126Z,80.58
2023-01-28T13:45:01.587Z,80.73
2023-01-28T13:50:01.863Z,80.41
2023-01-28T13:55:01.412Z,80.41
2023-01-28T14:00:01.855Z,80.46
2023-01-28T14:05:02.158Z,79.93
2023-01-28T14:10:01.662Z,79.67
2023-01-28T14:15:02.219Z,79.67
2023-01-28T14:20:02.127Z,79.81
2023-01-28T14:25:01.597Z,81.42
2023-01-28T14:30:02.108Z,83.18
2023-01-28T14:35:01.607Z,82.92
2023-01-28T14:40:02.071Z,83.32
2023-01-28T14:45:02.267Z,82.77
2023-01-28T14:50:01.756Z,82.49
2023-01-28T14:55:01.622Z,83.82
2023-01-28T15:00:02.223Z,81.42
2023-01-28T15:05:01.484Z,83.21
2023-01-28T15:10:01.305Z,82.17
2023-01-28T15:15:02.067Z,83.05
2023-01-28T15:20:01.507Z,83.5
2023-01-28T15:25:01.557Z,82.28
2023-01-28T15:30:02.258Z,82.11
2023-01-28T15:35:01.848Z,81.53
2023-01-28T15:40:01.403Z,81.65
2023-01-28T15:45:01.751Z,82.04
2023-01-28T15:50:01.962Z,82.87
2023-01-28T15:55:01.355Z,83.6
2023-01-28T16:00:02.143Z,84.79
2023-01-28T16:05:01.628Z,84.56
2023-01-28T16:10:02.173Z,84.92
2023-01-28T16:15:02.022Z,86.31
2023-01-28T16:20:01.914Z,87.43
2023-01-28T16:25:01.438Z,88.78
2023-01-28T16:30:01.506Z,88.72
2023-01-28T16:35:02.216Z,89.74
2023-01-28T16:40:02.396Z,90.57
2023-01-28T16:45:01.953Z,90.94
2023-01-28T16:50:02.052Z,91.36
2023-01-28T16:55:01.670Z,91.55
2023-01-28T17:00:02.000Z,92.06
2023-01-28T17:05:01.654Z,91.89
2023-01-28T17:10:01.569Z,92.31
2023-01-28T17:15:02.137Z,93.71
2023-01-28T17:20:01.872Z,93.68
2023-01-28T17:25:01.787Z,92.79
2023-01-28T17:30:01.464Z,92.32
2023-01-28T17:35:01.794Z,91.92
2023-01-28T17:40:01.377Z,90.99
2023-01-28T17:45:01.854Z,91.91
2023-01-28T17:50:01.849Z,91.71
2023-01-28T17:55:02.099Z,91.66
2023-01-28T18:00:02.451Z,91.16
2023-01-28T18:05:02.395Z,91.67
2023-01-28T18:10:02.112Z,92.13
2023-01-28T18:15:02.322Z,91.81
2023-01-28T18:20:02.079Z,91.95
2023-01-28T18:25:02.202Z,91.93
2023-01-28T18:30:02.057Z,92.09
2023-01-28T18:35:02.022Z,92.69
2023-01-28T18:40:01.943Z,93.89
2023-01-28T18:45:02.151Z,94.28
2023-01-28T18:50:01.926Z,93.83
2023-01-28T18:55:01.759Z,93.86
2023-01-28T19:00:02.276Z,93.99
2023-01-28T19:05:01.492Z,93.75
2023-01-28T19:10:01.970Z,93.77
2023-01-28T19:15:01.976Z,93.84
2023-01-28T19:20:01.583Z,94.03
2023-01-28T19:25:01.722Z,94.49
2023-01-28T19:30:01.764Z,94.36
2023-01-28T19:35:01.887Z,94.17
2023-01-28T19:40:02.056Z,94.49
2023-01-28T19:45:03.917Z,94.49
2023-01-28T19:50:02.228Z,95.29
2023-01-28T19:55:02.463Z,95.18
2023-01-28T20:00:01.881Z,95.12
2023-01-28T20:05:02.213Z,95.37
2023-01-28T20:10:02.029Z,94.97
2023-01-28T20:15:02.177Z,94.77
2023-01-28T20:20:02.262Z,93.82
2023-01-28T20:25:02.412Z,93.25
2023-01-28T20:30:02.433Z,93.51
2023-01-28T20:35:02.256Z,92.74
2023-01-28T20:40:01.895Z,92.59
2023-01-28T20:45:01.774Z,92.7
2023-01-28T20:50:02.010Z,92.44
2023-01-28T20:55:02.319Z,92.95
2023-01-28T21:00:02.394Z,93
2023-01-28T21:05:02.493Z,92.69
2023-01-28T21:10:02.608Z,92.68
2023-01-28T21:15:02.636Z,92.35
2023-01-28T21:20:02.241Z,92.54
2023-01-28T21:25:05.062Z,92.23
2023-01-28T21:30:02.048Z,92.67
2023-01-28T21:35:02.879Z,92.86
2023-01-28T21:40:02.403Z,92.83
2023-01-28T21:45:01.772Z,92.64
2023-01-28T21:50:01.964Z,92.82
2023-01-28T21:55:02.073Z,92.96
2023-01-28T22:00:02.151Z,92.84
2023-01-28T22:05:01.595Z,92.87
2023-01-28T22:10:02.063Z,93.03
2023-01-28T22:15:02.266Z,93.48
2023-01-28T22:20:01.459Z,93.66
2023-01-28T22:25:02.076Z,94.09
2023-01-28T22:30:01.926Z,94.67
2023-01-28T22:35:01.471Z,94.84
2023-01-28T22:40:01.724Z,94.77
2023-01-28T22:45:01.522Z,95.06
2023-01-28T22:50:01.977Z,95.98
2023-01-28T22:55:02.157Z,95.89
2023-01-28T23:00:01.583Z,95.7
2023-01-28T23:05:01.556Z,96.23
2023-01-28T23:10:02.241Z,96.68
2023-01-28T23:15:01.346Z,97
2023-01-28T23:20:02.088Z,96.88
2023-01-28T23:25:02.268Z,96.98
2023-01-28T23:30:01.606Z,97.42
2023-01-28T23:35:02.014Z,97.49
2023-01-28T23:40:02.088Z,97.53
2023-01-28T23:45:01.341Z,97.94
2023-01-28T23:50:01.839Z,98.02
2023-01-28T23:55:01.889Z,98.23
